createdAt,value
2022-11-21T04:46:44.624Z,8.70
2022-11-21T04:49:11.575Z,8.80
2022-11-21T04:51:38.549Z,8.70
2022-11-21T04:54:05.606Z,8.70
2022-11-21T04:56:32.594Z,8.70
2022-11-21T04:58:59.519Z,8.80
2022-11-21T05:01:26.564Z,8.90
2022-11-21T05:03:53.795Z,8.80
2022-11-21T05:06:20.806Z,8.70
2022-11-21T05:08:51.717Z,8.70
2022-11-21T05:11:39.116Z,8.60
2022-11-21T05:14:06.159Z,8.40
2022-11-21T05:16:33.463Z,8.40
2022-11-21T05:19:00.540Z,8.40
2022-11-21T05:21:27.483Z,8.30
2022-11-21T05:23:54.481Z,8.10
2022-11-21T05:26:21.739Z,8.10
2022-11-21T05:28:48.838Z,8.30
2022-11-21T05:31:15.848Z,8.40
2022-11-21T05:33:42.797Z,8.50
2022-11-21T05:36:09.829Z,8.60
2022-11-21T05:38:36.938Z,8.90
2022-11-21T05:41:03.950Z,8.70
2022-11-21T05:43:45.896Z,8.80
2022-11-21T05:46:17.195Z,8.80
2022-11-21T05:48:44.175Z,8.80
2022-11-21T05:51:11.507Z,8.80
2022-11-21T05:53:38.725Z,8.80
2022-11-21T05:56:07.446Z,9.10
2022-11-21T05:58:34.660Z,8.90
2022-11-21T06:01:01.991Z,8.90
2022-11-21T06:03:31.197Z,9.00
2022-11-21T06:05:59.500Z,9.00
2022-11-21T06:08:27.580Z,9.00
2022-11-21T06:10:54.715Z,9.00
2022-11-21T06:13:24.524Z,9.00
2022-11-21T06:15:58.754Z,9.10
2022-11-21T06:18:26.173Z,9.10
2022-11-21T06:20:53.295Z,9.10
2022-11-21T06:23:20.310Z,9.00
2022-11-21T06:25:47.305Z,9.00
2022-11-21T06:28:14.303Z,9.00
2022-11-21T06:30:41.279Z,9.00
2022-11-21T06:33:08.329Z,9.00
2022-11-21T06:35:37.248Z,9.10
2022-11-21T06:38:04.330Z,8.90
2022-11-21T06:40:31.268Z,8.80
2022-11-21T06:42:58.185Z,8.90
2022-11-21T06:45:25.110Z,8.80
2022-11-21T06:47:52.027Z,8.60
2022-11-21T06:50:19.015Z,8.60
2022-11-21T06:52:46.041Z,8.60
2022-11-21T06:55:13.168Z,8.50
2022-11-21T06:57:40.257Z,8.40
2022-11-21T07:00:07.525Z,8.40
2022-11-21T07:02:34.491Z,8.40
2022-11-21T07:05:01.475Z,8.40
2022-11-21T07:07:28.538Z,8.40
2022-11-21T07:09:55.559Z,8.40
2022-11-21T07:12:41.124Z,8.20
2022-11-21T07:15:08.409Z,8.30
2022-11-21T07:17:35.457Z,8.20
2022-11-21T07:20:02.482Z,8.20
2022-11-21T07:22:29.539Z,8.20
2022-11-21T07:24:56.589Z,8.20
2022-11-21T07:27:23.784Z,8.30
2022-11-21T07:29:51.824Z,8.40
2022-11-21T07:32:18.797Z,8.50
2022-11-21T07:34:45.747Z,8.50
2022-11-21T07:37:12.706Z,8.60
2022-11-21T07:39:39.628Z,8.60
2022-11-21T07:42:06.608Z,8.70
2022-11-21T07:44:33.554Z,8.60
2022-11-21T07:47:00.534Z,8.60
2022-11-21T07:49:27.922Z,8.60
2022-11-21T07:51:55.110Z,8.50
2022-11-21T07:54:22.160Z,8.50
2022-11-21T07:56:49.112Z,8.50
2022-11-21T07:59:16.058Z,8.50
2022-11-21T08:01:45.587Z,8.40
2022-11-21T08:04:12.830Z,8.40
2022-11-21T08:06:39.769Z,8.40
2022-11-21T08:09:06.752Z,8.40
2022-11-21T08:11:35.522Z,8.40
2022-11-21T08:14:02.478Z,8.30
2022-11-21T08:16:32.819Z,8.20
2022-11-21T08:19:00.051Z,8.20
2022-11-21T08:21:27.256Z,8.20
2022-11-21T08:23:55.061Z,8.40
2022-11-21T08:26:22.094Z,8.30
2022-11-21T08:28:49.056Z,8.40
2022-11-21T08:31:16.185Z,8.50
2022-11-21T08:33:43.230Z,8.60
2022-11-21T08:36:10.510Z,8.60
2022-11-21T08:38:37.485Z,8.80
2022-11-21T08:41:22.986Z,8.90
2022-11-21T08:43:50.014Z,8.90
2022-11-21T08:46:18.098Z,9.00
2022-11-21T08:48:45.075Z,9.10
2022-11-21T08:51:12.030Z,9.10
2022-11-21T08:53:39.142Z,9.10
2022-11-21T08:56:06.109Z,9.40
2022-11-21T08:58:33.169Z,9.30
2022-11-21T09:01:00.383Z,9.30
2022-11-21T09:03:31.048Z,9.40
2022-11-21T09:05:59.267Z,9.40
2022-11-21T09:08:26.563Z,9.50
2022-11-21T09:10:53.583Z,9.50
2022-11-21T09:13:20.703Z,9.50
2022-11-21T09:16:06.116Z,9.50
2022-11-21T09:18:33.039Z,9.60
2022-11-21T09:20:59.988Z,9.60
2022-11-21T09:23:26.945Z,9.60
2022-11-21T09:25:54.277Z,9.60
2022-11-21T09:28:21.279Z,9.70
2022-11-21T09:30:48.358Z,9.80
2022-11-21T09:33:16.858Z,9.80
2022-11-21T09:35:44.024Z,9.90
2022-11-21T09:38:11.044Z,9.90
2022-11-21T09:40:40.447Z,9.90
2022-11-21T09:43:36.008Z,9.80
2022-11-21T09:46:10.531Z,9.90
2022-11-21T09:48:58.255Z,9.80
2022-11-21T09:51:26.541Z,9.80
2022-11-21T09:53:56.315Z,9.80
2022-11-21T09:56:23.727Z,9.90
2022-11-21T09:59:11.498Z,10.00
2022-11-21T10:01:38.824Z,10.10
2022-11-21T10:04:05.848Z,10.20
2022-11-21T10:06:38.220Z,10.20
2022-11-21T10:09:05.119Z,10.50
2022-11-21T10:12:05.380Z,10.20
2022-11-21T10:14:35.151Z,10.20
2022-11-21T10:17:16.562Z,10.30
2022-11-21T10:20:04.366Z,10.30
2022-11-21T10:22:34.486Z,10.40
2022-11-21T10:25:12.519Z,10.40
2022-11-21T10:27:46.596Z,10.40
2022-11-21T10:30:15.201Z,10.40
2022-11-21T10:32:44.324Z,10.40
2022-11-21T10:35:14.299Z,10.40
2022-11-21T10:37:49.818Z,10.30
2022-11-21T10:40:32.009Z,10.30
2022-11-21T10:43:21.444Z,10.40
2022-11-21T10:45:49.304Z,10.40
2022-11-21T10:48:16.243Z,10.40
2022-11-21T10:51:02.128Z,10.50
2022-11-21T10:53:48.074Z,10.50
2022-11-21T10:56:17.815Z,10.50
2022-11-21T10:58:45.987Z,10.50
2022-11-21T11:01:23.441Z,10.50
2022-11-21T11:06:56.484Z,10.50
2022-11-21T11:09:28.300Z,10.50
2022-11-21T11:12:13.720Z,10.60
2022-11-21T11:14:40.700Z,10.60
2022-11-21T11:17:13.572Z,10.60
2022-11-21T11:19:59.021Z,10.70
2022-11-21T11:22:29.682Z,10.70
2022-11-21T11:25:00.398Z,10.80
2022-11-21T11:27:29.099Z,10.80
2022-11-21T11:29:56.042Z,10.90
2022-11-21T11:32:23.016Z,11.20
2022-11-21T11:34:55.910Z,10.90
2022-11-21T11:37:22.890Z,10.90
2022-11-21T11:39:55.806Z,10.90
2022-11-21T11:43:16.901Z,10.90
2022-11-21T11:46:23.741Z,10.90
2022-11-21T11:49:17.135Z,10.90
2022-11-21T11:51:44.762Z,11.00
2022-11-21T11:54:18.082Z,11.10
2022-11-21T11:56:47.016Z,11.10
2022-11-21T11:59:29.893Z,11.10
2022-11-21T12:02:06.304Z,11.20
2022-11-21T12:05:02.373Z,11.20
2022-11-21T12:10:24.874Z,11.60
2022-11-21T12:13:05.477Z,11.30
2022-11-21T12:15:52.885Z,11.30
2022-11-21T12:18:19.916Z,11.30
2022-11-21T12:21:05.545Z,11.40
2022-11-21T12:23:32.509Z,11.40
2022-11-21T12:25:59.428Z,11.40
2022-11-21T12:28:29.456Z,11.40
2022-11-21T12:31:00.159Z,11.40
2022-11-21T12:33:27.305Z,11.40
2022-11-21T12:36:18.837Z,11.40
2022-11-21T12:39:09.477Z,11.40
2022-11-21T12:41:54.946Z,11.50
2022-11-21T12:44:40.395Z,11.60
2022-11-21T12:47:10.126Z,11.60
2022-11-21T12:50:11.049Z,11.60
2022-11-21T12:53:00.002Z,11.60
2022-11-21T12:55:35.161Z,11.70
2022-11-21T12:58:20.950Z,11.70
2022-11-21T13:00:57.031Z,11.80
2022-11-21T13:03:29.961Z,11.80
2022-11-21T13:05:57.643Z,11.80
2022-11-21T13:08:26.009Z,11.80
2022-11-21T13:11:19.305Z,11.90
2022-11-21T13:13:47.335Z,11.90
2022-11-21T13:16:37.547Z,11.90
2022-11-21T13:19:12.877Z,11.90
2022-11-21T13:21:44.089Z,12.00
2022-11-21T13:24:11.528Z,12.00
2022-11-21T13:26:38.465Z,12.00
2022-11-21T13:29:12.766Z,12.00
2022-11-21T13:31:40.779Z,12.00
2022-11-21T13:34:26.305Z,12.00
2022-11-21T13:36:53.324Z,12.10
2022-11-21T13:39:24.911Z,12.10
2022-11-21T13:42:20.689Z,12.10
2022-11-21T13:44:48.266Z,12.00
2022-11-21T13:47:33.936Z,12.10
2022-11-21T13:50:08.785Z,12.00
2022-11-21T13:52:44.758Z,12.00
2022-11-21T13:55:20.777Z,12.10
2022-11-21T13:57:47.712Z,12.00
2022-11-21T14:00:20.610Z,12.00
2022-11-21T14:02:50.413Z,12.00
2022-11-21T14:05:35.893Z,12.00
2022-11-21T14:08:32.103Z,11.90
2022-11-21T14:10:59.270Z,11.90
2022-11-21T14:13:37.904Z,11.90
2022-11-21T14:16:16.749Z,11.90
2022-11-21T14:18:44.740Z,11.90
2022-11-21T14:21:27.227Z,11.90
2022-11-21T14:23:56.468Z,11.90
2022-11-21T14:26:25.338Z,11.90
2022-11-21T14:28:52.443Z,11.90
2022-11-21T14:31:19.452Z,11.90
2022-11-21T14:33:47.559Z,12.10
2022-11-21T14:36:22.228Z,11.70
2022-11-21T14:39:07.590Z,11.70
2022-11-21T14:41:36.627Z,11.70
2022-11-21T14:44:04.147Z,11.60
2022-11-21T14:46:38.105Z,11.70
2022-11-21T14:49:16.974Z,11.60
2022-11-21T14:51:51.766Z,11.60
2022-11-21T14:54:26.851Z,11.60
2022-11-21T14:56:57.405Z,11.50
2022-11-21T14:59:25.125Z,11.40
2022-11-21T15:01:55.809Z,11.40
2022-11-21T15:04:26.985Z,11.40
2022-11-21T15:06:54.184Z,11.30
2022-11-21T15:12:09.794Z,11.40
2022-11-21T15:14:39.200Z,11.60
2022-11-21T15:17:08.209Z,11.30
2022-11-21T15:19:35.196Z,11.30
2022-11-21T15:22:04.121Z,11.30
2022-11-21T15:24:42.172Z,11.30
2022-11-21T15:27:27.149Z,11.20
2022-11-21T15:30:09.302Z,11.10
2022-11-21T15:32:54.906Z,11.10
2022-11-21T15:35:40.424Z,11.00
2022-11-21T15:38:19.435Z,11.00
2022-11-21T15:41:04.506Z,10.90
2022-11-21T15:43:39.157Z,11.00
2022-11-21T15:46:15.417Z,10.90
2022-11-21T15:48:44.601Z,10.90
2022-11-21T15:51:11.710Z,10.70
2022-11-21T15:53:39.029Z,10.60
2022-11-21T15:56:06.435Z,10.60
2022-11-21T15:58:33.561Z,10.50
2022-11-21T16:01:00.695Z,10.40
2022-11-21T16:03:27.711Z,10.40
2022-11-21T16:05:54.842Z,10.40
2022-11-21T16:08:21.776Z,10.30
2022-11-21T16:10:48.754Z,10.30
2022-11-21T16:13:15.788Z,10.30
2022-11-21T16:15:42.755Z,10.30
2022-11-21T16:18:09.786Z,10.50
2022-11-21T16:20:36.776Z,10.30
2022-11-21T16:23:03.912Z,10.20
2022-11-21T16:25:31.157Z,10.20
2022-11-21T16:27:59.821Z,10.10
2022-11-21T16:30:28.895Z,10.10
2022-11-21T16:32:56.276Z,10.10
2022-11-21T16:35:23.574Z,10.00
2022-11-21T16:37:52.897Z,10.10
2022-11-21T16:40:19.901Z,10.00
2022-11-21T16:42:47.078Z,10.20
2022-11-21T16:45:14.178Z,9.90
2022-11-21T16:47:47.305Z,10.00
2022-11-21T16:50:15.690Z,10.00
2022-11-21T16:52:42.654Z,10.00
2022-11-21T16:55:09.689Z,10.00
2022-11-21T16:57:36.785Z,10.00
2022-11-21T17:00:04.165Z,10.10
2022-11-21T17:02:31.199Z,10.10
2022-11-21T17:04:58.252Z,10.10
2022-11-21T17:07:25.279Z,10.10
2022-11-21T17:09:52.292Z,10.00
2022-11-21T17:12:19.217Z,10.00
2022-11-21T17:14:47.041Z,10.00
2022-11-21T17:17:13.973Z,9.90
2022-11-21T17:19:41.008Z,9.90
2022-11-21T17:22:07.996Z,9.80
2022-11-21T17:24:35.037Z,9.90
2022-11-21T17:27:02.699Z,9.90
2022-11-21T17:29:30.162Z,9.90
2022-11-21T17:31:57.438Z,9.90
2022-11-21T17:34:29.769Z,9.80
2022-11-21T17:36:59.637Z,10.00
2022-11-21T17:39:29.909Z,10.10
2022-11-21T17:41:59.386Z,9.90
2022-11-21T17:44:26.480Z,9.90
2022-11-21T17:46:53.905Z,9.90
2022-11-21T17:49:21.401Z,9.80
2022-11-21T17:51:50.483Z,9.80
2022-11-21T17:54:20.772Z,9.70
2022-11-21T17:56:52.635Z,9.80
2022-11-21T17:59:23.465Z,10.20
2022-11-21T18:01:50.501Z,9.90
2022-11-21T18:04:18.156Z,10.10
2022-11-21T18:06:45.144Z,9.90
2022-11-21T18:09:12.923Z,9.90
2022-11-21T18:11:40.712Z,9.90
2022-11-21T18:14:08.723Z,9.90
2022-11-21T18:16:35.766Z,9.80
2022-11-21T18:19:02.759Z,9.80
2022-11-21T18:21:30.555Z,9.80
2022-11-21T18:23:59.549Z,9.80
2022-11-21T18:26:27.845Z,9.90
2022-11-21T18:29:20.215Z,9.90
2022-11-21T18:31:44.028Z,10.00
2022-11-21T18:34:12.457Z,10.00
2022-11-21T18:36:39.430Z,10.10
2022-11-21T18:39:14.223Z,9.90
2022-11-21T18:41:42.509Z,10.00
2022-11-21T18:44:10.292Z,10.00
2022-11-21T18:46:38.520Z,9.90
2022-11-21T18:49:07.454Z,9.90
2022-11-21T18:51:35.427Z,10.00
2022-11-21T18:54:08.097Z,9.90
2022-11-21T18:56:36.903Z,9.90
2022-11-21T18:59:05.578Z,9.90
2022-11-21T19:01:33.084Z,9.90
2022-11-21T19:04:00.224Z,9.90
2022-11-21T19:06:27.584Z,9.90
2022-11-21T19:08:55.320Z,9.90
2022-11-21T19:11:24.443Z,9.80
2022-11-21T19:13:52.221Z,9.90
2022-11-21T19:16:20.471Z,9.90
2022-11-21T19:19:05.240Z,9.90
2022-11-21T19:21:38.458Z,9.90
2022-11-21T19:24:09.436Z,9.90
2022-11-21T19:26:36.362Z,9.80
2022-11-21T19:29:03.316Z,9.70
2022-11-21T19:31:30.321Z,9.80
2022-11-21T19:33:57.752Z,9.80
2022-11-21T19:36:24.839Z,9.70
2022-11-21T19:38:52.030Z,9.70
2022-11-21T19:41:20.752Z,9.50
2022-11-21T19:43:51.482Z,9.60
2022-11-21T19:46:18.429Z,9.50
2022-11-21T19:48:49.123Z,9.50
2022-11-21T19:51:17.016Z,9.50
2022-11-21T19:53:44.346Z,9.60
2022-11-21T19:56:18.740Z,9.60
2022-11-21T19:58:46.287Z,9.60
2022-11-21T20:01:14.554Z,9.60
2022-11-21T20:03:42.742Z,9.60
2022-11-21T20:06:16.985Z,9.60
2022-11-21T20:08:44.716Z,9.70
2022-11-21T20:11:13.100Z,9.70
2022-11-21T20:13:40.710Z,9.60
2022-11-21T20:16:10.812Z,9.60
2022-11-21T20:18:37.732Z,9.70
2022-11-21T20:21:06.979Z,9.60
2022-11-21T20:23:33.981Z,9.60
2022-11-21T20:26:00.933Z,9.60
2022-11-21T20:28:27.986Z,9.50
2022-11-21T20:30:54.972Z,9.50
2022-11-21T20:33:22.010Z,9.70
2022-11-21T20:35:48.979Z,9.80
2022-11-21T20:38:18.950Z,9.70
2022-11-21T20:40:52.723Z,9.60
2022-11-21T20:43:19.639Z,9.70
2022-11-21T20:46:08.836Z,9.60
2022-11-21T20:48:34.653Z,9.60
2022-11-21T20:53:55.193Z,9.60
2022-11-21T20:56:24.306Z,9.60
2022-11-21T20:58:51.263Z,9.70
2022-11-21T21:01:19.113Z,9.80
2022-11-21T21:03:46.517Z,9.70
2022-11-21T21:06:14.263Z,9.90
2022-11-21T21:08:41.285Z,9.70
2022-11-21T21:11:30.665Z,9.70
2022-11-21T21:13:57.910Z,9.70
2022-11-21T21:16:26.197Z,9.60
2022-11-21T21:18:53.721Z,9.70
2022-11-21T21:21:21.875Z,9.80
2022-11-21T21:23:56.364Z,9.70
2022-11-21T21:26:24.638Z,9.70
2022-11-21T21:28:52.331Z,9.80
2022-11-21T21:31:20.198Z,9.80
2022-11-21T21:33:47.218Z,9.80
2022-11-21T21:36:15.600Z,9.90
2022-11-21T21:38:42.680Z,9.90
2022-11-21T21:41:10.813Z,9.80
2022-11-21T21:43:38.006Z,9.80
2022-11-21T21:46:06.136Z,9.80
2022-11-21T21:48:33.253Z,9.90
2022-11-21T21:51:07.335Z,9.90
2022-11-21T21:53:37.535Z,9.90
2022-11-21T21:56:05.228Z,9.90
2022-11-21T21:58:33.076Z,9.80
2022-11-21T22:01:23.115Z,9.80
2022-11-21T22:03:57.760Z,9.70
2022-11-21T22:06:25.135Z,9.60
2022-11-21T22:08:52.331Z,9.60
2022-11-21T22:11:23.519Z,9.60
2022-11-21T22:13:56.726Z,9.60
2022-11-21T22:16:23.910Z,9.70
2022-11-21T22:18:51.304Z,9.70
2022-11-21T22:21:23.734Z,9.80
2022-11-21T22:24:22.993Z,9.80
2022-11-21T22:26:37.758Z,9.80
2022-11-21T22:29:04.896Z,9.80
2022-11-21T22:31:32.210Z,9.80
2022-11-21T22:33:59.404Z,9.70
2022-11-21T22:36:26.397Z,9.60
2022-11-21T22:38:54.112Z,9.70
2022-11-21T22:41:24.969Z,9.70
2022-11-21T22:43:55.936Z,9.70
2022-11-21T22:46:23.954Z,9.80
2022-11-21T22:48:51.194Z,9.70
2022-11-21T22:51:22.871Z,9.70
2022-11-21T22:53:50.361Z,9.70
2022-11-21T22:56:18.339Z,9.80
2022-11-21T22:58:45.882Z,9.70
2022-11-21T23:01:13.921Z,9.70
2022-11-21T23:03:43.021Z,9.60
2022-11-21T23:06:11.094Z,9.60
2022-11-21T23:08:38.530Z,9.70
2022-11-21T23:11:06.326Z,9.90
2022-11-21T23:13:33.958Z,9.70
2022-11-21T23:16:01.265Z,9.70
2022-11-21T23:18:28.283Z,9.60
2022-11-21T23:20:55.629Z,9.70
2022-11-21T23:23:22.937Z,9.60
2022-11-21T23:25:50.277Z,9.70
2022-11-21T23:28:17.412Z,9.70
2022-11-21T23:30:45.209Z,9.70
2022-11-21T23:33:12.510Z,9.80
2022-11-21T23:35:39.484Z,9.80
2022-11-21T23:38:06.466Z,9.80
2022-11-21T23:40:33.828Z,9.90
2022-11-21T23:43:01.195Z,9.90
2022-11-21T23:45:28.165Z,9.90
2022-11-21T23:47:55.190Z,10.00
2022-11-21T23:50:22.266Z,9.90
2022-11-21T23:52:49.308Z,9.90
2022-11-21T23:55:16.582Z,9.90
2022-11-21T23:57:48.153Z,10.00
